sensor_id;sensor_type;location;lat;lon;timestamp;P1;durP1;ratioP1;P2;durP2;ratioP2
46411;SDS011;32113;42.012;24.870;2022-07-17T00:02:25;3.78;;;3.10;;
46411;SDS011;32113;42.012;24.870;2022-07-17T00:04:50;5.55;;;2.85;;
46411;SDS011;32113;42.012;24.870;2022-07-17T00:07:16;6.03;;;3.20;;
46411;SDS011;32113;42.012;24.870;2022-07-17T00:09:41;3.38;;;3.08;;
46411;SDS011;32113;42.012;24.870;2022-07-17T00:12:06;4.97;;;3.08;;
46411;SDS011;32113;42.012;24.870;2022-07-17T00:14:32;5.10;;;3.00;;
46411;SDS011;32113;42.012;24.870;2022-07-17T00:16:58;4.85;;;3.10;;
46411;SDS011;32113;42.012;24.870;2022-07-17T00:19:24;3.70;;;2.97;;
46411;SDS011;32113;42.012;24.870;2022-07-17T00:21:50;6.82;;;3.00;;
46411;SDS011;32113;42.012;24.870;2022-07-17T00:24:15;5.10;;;3.20;;
46411;SDS011;32113;42.012;24.870;2022-07-17T00:26:48;3.20;;;2.70;;
46411;SDS011;32113;42.012;24.870;2022-07-17T00:29:15;7.18;;;3.20;;
46411;SDS011;32113;42.012;24.870;2022-07-17T00:31:41;5.25;;;3.25;;
46411;SDS011;32113;42.012;24.870;2022-07-17T00:34:08;8.27;;;3.33;;
46411;SDS011;32113;42.012;24.870;2022-07-17T00:36:33;6.25;;;3.05;;
46411;SDS011;32113;42.012;24.870;2022-07-17T00:38:58;3.50;;;3.10;;
46411;SDS011;32113;42.012;24.870;2022-07-17T00:41:24;5.00;;;3.17;;
46411;SDS011;32113;42.012;24.870;2022-07-17T00:43:49;3.30;;;2.90;;
46411;SDS011;32113;42.012;24.870;2022-07-17T00:46:15;6.63;;;3.10;;
46411;SDS011;32113;42.012;24.870;2022-07-17T00:48:40;4.82;;;3.35;;
46411;SDS011;32113;42.012;24.870;2022-07-17T00:51:06;6.55;;;3.00;;
46411;SDS011;32113;42.012;24.870;2022-07-17T00:53:32;6.78;;;3.28;;
46411;SDS011;32113;42.012;24.870;2022-07-17T00:56:01;6.03;;;3.47;;
46411;SDS011;32113;42.012;24.870;2022-07-17T00:58:28;6.07;;;2.70;;
46411;SDS011;32113;42.012;24.870;2022-07-17T01:00:55;8.23;;;2.78;;
46411;SDS011;32113;42.012;24.870;2022-07-17T01:03:21;5.07;;;3.35;;
46411;SDS011;32113;42.012;24.870;2022-07-17T01:05:48;7.35;;;3.88;;
46411;SDS011;32113;42.012;24.870;2022-07-17T01:08:14;4.68;;;3.25;;
46411;SDS011;32113;42.012;24.870;2022-07-17T01:10:39;8.73;;;3.30;;
46411;SDS011;32113;42.012;24.870;2022-07-17T01:13:05;3.38;;;3.05;;
46411;SDS011;32113;42.012;24.870;2022-07-17T01:15:35;7.57;;;2.97;;
46411;SDS011;32113;42.012;24.870;2022-07-17T01:18:04;3.88;;;2.95;;
46411;SDS011;32113;42.012;24.870;2022-07-17T01:20:34;7.88;;;3.30;;
46411;SDS011;32113;42.012;24.870;2022-07-17T01:23:01;3.65;;;2.90;;
46411;SDS011;32113;42.012;24.870;2022-07-17T01:25:26;5.57;;;3.03;;
46411;SDS011;32113;42.012;24.870;2022-07-17T01:27:51;3.20;;;2.90;;
46411;SDS011;32113;42.012;24.870;2022-07-17T01:30:17;5.22;;;3.10;;
46411;SDS011;32113;42.012;24.870;2022-07-17T01:32:42;5.35;;;3.00;;
46411;SDS011;32113;42.012;24.870;2022-07-17T01:35:09;3.65;;;3.00;;
46411;SDS011;32113;42.012;24.870;2022-07-17T01:37:37;5.05;;;3.10;;
46411;SDS011;32113;42.012;24.870;2022-07-17T01:40:03;7.75;;;2.92;;
46411;SDS011;32113;42.012;24.870;2022-07-17T01:42:29;4.65;;;3.45;;
46411;SDS011;32113;42.012;24.870;2022-07-17T01:44:56;10.55;;;3.28;;
46411;SDS011;32113;42.012;24.870;2022-07-17T01:47:23;5.05;;;3.33;;
46411;SDS011;32113;42.012;24.870;2022-07-17T01:49:50;3.72;;;3.17;;
46411;SDS011;32113;42.012;24.870;2022-07-17T01:52:17;3.13;;;2.80;;
46411;SDS011;32113;42.012;24.870;2022-07-17T01:54:43;6.82;;;3.25;;
46411;SDS011;32113;42.012;24.870;2022-07-17T01:57:09;5.88;;;2.88;;
46411;SDS011;32113;42.012;24.870;2022-07-17T01:59:35;6.50;;;3.30;;
46411;SDS011;32113;42.012;24.870;2022-07-17T02:02:01;4.90;;;3.05;;
46411;SDS011;32113;42.012;24.870;2022-07-17T02:04:28;5.07;;;2.97;;
46411;SDS011;32113;42.012;24.870;2022-07-17T02:06:54;4.43;;;3.10;;
46411;SDS011;32113;42.012;24.870;2022-07-17T02:09:20;5.28;;;3.47;;
46411;SDS011;32113;42.012;24.870;2022-07-17T02:11:46;7.72;;;3.55;;
46411;SDS011;32113;42.012;24.870;2022-07-17T02:14:11;7.68;;;3.85;;
46411;SDS011;32113;42.012;24.870;2022-07-17T02:16:36;4.88;;;3.38;;
46411;SDS011;32113;42.012;24.870;2022-07-17T02:19:02;6.22;;;3.30;;
46411;SDS011;32113;42.012;24.870;2022-07-17T02:21:27;7.13;;;3.03;;
46411;SDS011;32113;42.012;24.870;2022-07-17T02:23:53;5.10;;;2.95;;
46411;SDS011;32113;42.012;24.870;2022-07-17T02:26:18;3.90;;;3.03;;
46411;SDS011;32113;42.012;24.870;2022-07-17T02:28:43;4.60;;;3.08;;
46411;SDS011;32113;42.012;24.870;2022-07-17T02:31:09;7.25;;;3.25;;
46411;SDS011;32113;42.012;24.870;2022-07-17T02:33:34;6.68;;;3.55;;
46411;SDS011;32113;42.012;24.870;2022-07-17T02:36:00;5.45;;;3.30;;
46411;SDS011;32113;42.012;24.870;2022-07-17T02:38:26;4.70;;;3.42;;
46411;SDS011;32113;42.012;24.870;2022-07-17T02:40:52;5.35;;;3.50;;
46411;SDS011;32113;42.012;24.870;2022-07-17T02:43:17;6.82;;;3.22;;
46411;SDS011;32113;42.012;24.870;2022-07-17T02:45:43;8.60;;;3.30;;
46411;SDS011;32113;42.012;24.870;2022-07-17T02:48:08;6.65;;;3.08;;
46411;SDS011;32113;42.012;24.870;2022-07-17T02:50:34;5.93;;;3.63;;
46411;SDS011;32113;42.012;24.870;2022-07-17T02:52:59;4.10;;;3.10;;
46411;SDS011;32113;42.012;24.870;2022-07-17T02:55:24;3.60;;;3.10;;
46411;SDS011;32113;42.012;24.870;2022-07-17T02:57:50;4.82;;;3.58;;
46411;SDS011;32113;42.012;24.870;2022-07-17T03:00:16;4.03;;;3.17;;
46411;SDS011;32113;42.012;24.870;2022-07-17T03:02:43;5.43;;;3.60;;
46411;SDS011;32113;42.012;24.870;2022-07-17T03:05:09;6.65;;;3.25;;
46411;SDS011;32113;42.012;24.870;2022-07-17T03:07:35;5.53;;;3.70;;
46411;SDS011;32113;42.012;24.870;2022-07-17T03:10:00;3.97;;;3.28;;
46411;SDS011;32113;42.012;24.870;2022-07-17T03:12:26;6.57;;;3.30;;
46411;SDS011;32113;42.012;24.870;2022-07-17T03:14:52;4.13;;;3.53;;
46411;SDS011;32113;42.012;24.870;2022-07-17T03:17:18;10.18;;;3.50;;
46411;SDS011;32113;42.012;24.870;2022-07-17T03:19:43;6.85;;;3.50;;
46411;SDS011;32113;42.012;24.870;2022-07-17T03:22:09;3.70;;;3.30;;
46411;SDS011;32113;42.012;24.870;2022-07-17T03:24:34;5.75;;;3.30;;
46411;SDS011;32113;42.012;24.870;2022-07-17T03:26:59;4.88;;;3.90;;
46411;SDS011;32113;42.012;24.870;2022-07-17T03:29:25;6.50;;;2.95;;
46411;SDS011;32113;42.012;24.870;2022-07-17T03:31:50;6.22;;;3.58;;
46411;SDS011;32113;42.012;24.870;2022-07-17T03:34:16;6.10;;;3.33;;
46411;SDS011;32113;42.012;24.870;2022-07-17T03:36:42;8.27;;;3.42;;
46411;SDS011;32113;42.012;24.870;2022-07-17T03:39:08;4.75;;;3.42;;
46411;SDS011;32113;42.012;24.870;2022-07-17T03:41:33;6.25;;;3.40;;
46411;SDS011;32113;42.012;24.870;2022-07-17T03:43:59;5.90;;;3.10;;
46411;SDS011;32113;42.012;24.870;2022-07-17T03:46:24;6.25;;;3.25;;
46411;SDS011;32113;42.012;24.870;2022-07-17T03:48:50;4.53;;;3.50;;
46411;SDS011;32113;42.012;24.870;2022-07-17T03:51:15;5.22;;;3.60;;
46411;SDS011;32113;42.012;24.870;2022-07-17T03:53:41;5.30;;;3.60;;
46411;SDS011;32113;42.012;24.870;2022-07-17T03:56:06;4.18;;;3.60;;
46411;SDS011;32113;42.012;24.870;2022-07-17T03:58:32;7.20;;;3.47;;
46411;SDS011;32113;42.012;24.870;2022-07-17T04:00:58;5.43;;;3.40;;
46411;SDS011;32113;42.012;24.870;2022-07-17T04:03:24;7.53;;;3.05;;
46411;SDS011;32113;42.012;24.870;2022-07-17T04:05:50;8.65;;;3.30;;
46411;SDS011;32113;42.012;24.870;2022-07-17T04:08:15;5.47;;;3.65;;
46411;SDS011;32113;42.012;24.870;2022-07-17T04:10:41;5.28;;;3.47;;
46411;SDS011;32113;42.012;24.870;2022-07-17T04:13:07;3.70;;;3.10;;
46411;SDS011;32113;42.012;24.870;2022-07-17T04:15:32;5.82;;;3.22;;
46411;SDS011;32113;42.012;24.870;2022-07-17T04:18:16;6.03;;;3.00;;
46411;SDS011;32113;42.012;24.870;2022-07-17T04:20:42;8.73;;;3.30;;
46411;SDS011;32113;42.012;24.870;2022-07-17T04:23:08;6.28;;;3.90;;
46411;SDS011;32113;42.012;24.870;2022-07-17T04:25:33;5.30;;;3.25;;
46411;SDS011;32113;42.012;24.870;2022-07-17T04:27:59;5.28;;;3.67;;
46411;SDS011;32113;42.012;24.870;2022-07-17T04:30:24;5.22;;;3.70;;
46411;SDS011;32113;42.012;24.870;2022-07-17T04:32:50;6.05;;;3.50;;
46411;SDS011;32113;42.012;24.870;2022-07-17T04:35:15;4.50;;;3.70;;
46411;SDS011;32113;42.012;24.870;2022-07-17T04:37:41;4.32;;;3.17;;
46411;SDS011;32113;42.012;24.870;2022-07-17T04:40:06;7.03;;;3.65;;
46411;SDS011;32113;42.012;24.870;2022-07-17T04:42:32;7.68;;;3.85;;
46411;SDS011;32113;42.012;24.870;2022-07-17T04:44:58;3.80;;;3.13;;
46411;SDS011;32113;42.012;24.870;2022-07-17T04:47:23;5.15;;;3.75;;
46411;SDS011;32113;42.012;24.870;2022-07-17T04:49:49;9.20;;;3.85;;
46411;SDS011;32113;42.012;24.870;2022-07-17T04:52:14;6.57;;;3.00;;
46411;SDS011;32113;42.012;24.870;2022-07-17T04:54:40;5.47;;;3.30;;
46411;SDS011;32113;42.012;24.870;2022-07-17T04:57:05;5.90;;;3.20;;
46411;SDS011;32113;42.012;24.870;2022-07-17T04:59:31;5.32;;;3.03;;
46411;SDS011;32113;42.012;24.870;2022-07-17T05:01:57;4.35;;;3.35;;
46411;SDS011;32113;42.012;24.870;2022-07-17T05:04:22;4.53;;;3.45;;
46411;SDS011;32113;42.012;24.870;2022-07-17T05:06:47;5.68;;;4.07;;
46411;SDS011;32113;42.012;24.870;2022-07-17T05:09:13;6.28;;;3.67;;
46411;SDS011;32113;42.012;24.870;2022-07-17T05:11:38;4.35;;;2.83;;
46411;SDS011;32113;42.012;24.870;2022-07-17T05:14:03;6.30;;;3.65;;
46411;SDS011;32113;42.012;24.870;2022-07-17T05:16:29;10.25;;;3.75;;
46411;SDS011;32113;42.012;24.870;2022-07-17T05:18:55;3.88;;;2.78;;
46411;SDS011;32113;42.012;24.870;2022-07-17T05:21:20;8.00;;;3.47;;
46411;SDS011;32113;42.012;24.870;2022-07-17T05:23:46;4.10;;;3.20;;
46411;SDS011;32113;42.012;24.870;2022-07-17T05:26:11;5.18;;;3.08;;
46411;SDS011;32113;42.012;24.870;2022-07-17T05:28:36;7.00;;;3.90;;
46411;SDS011;32113;42.012;24.870;2022-07-17T05:31:02;9.40;;;3.83;;
46411;SDS011;32113;42.012;24.870;2022-07-17T05:33:27;5.65;;;3.58;;
46411;SDS011;32113;42.012;24.870;2022-07-17T05:35:53;11.00;;;3.97;;
46411;SDS011;32113;42.012;24.870;2022-07-17T05:38:18;6.57;;;3.40;;
46411;SDS011;32113;42.012;24.870;2022-07-17T05:40:44;3.40;;;2.55;;
46411;SDS011;32113;42.012;24.870;2022-07-17T05:43:09;4.28;;;3.10;;
46411;SDS011;32113;42.012;24.870;2022-07-17T05:45:35;4.85;;;2.90;;
46411;SDS011;32113;42.012;24.870;2022-07-17T05:48:00;8.82;;;3.00;;
46411;SDS011;32113;42.012;24.870;2022-07-17T05:50:26;4.72;;;2.70;;
46411;SDS011;32113;42.012;24.870;2022-07-17T05:52:51;7.13;;;2.20;;
46411;SDS011;32113;42.012;24.870;2022-07-17T05:55:17;5.65;;;2.00;;
46411;SDS011;32113;42.012;24.870;2022-07-17T05:57:42;4.43;;;2.28;;
46411;SDS011;32113;42.012;24.870;2022-07-17T06:00:08;4.57;;;2.33;;
46411;SDS011;32113;42.012;24.870;2022-07-17T06:02:34;4.55;;;2.10;;
46411;SDS011;32113;42.012;24.870;2022-07-17T06:04:59;4.47;;;2.08;;
46411;SDS011;32113;42.012;24.870;2022-07-17T06:07:25;6.18;;;2.15;;
46411;SDS011;32113;42.012;24.870;2022-07-17T06:09:50;6.30;;;2.45;;
46411;SDS011;32113;42.012;24.870;2022-07-17T06:12:15;6.55;;;2.30;;
46411;SDS011;32113;42.012;24.870;2022-07-17T06:14:41;7.85;;;2.30;;
46411;SDS011;32113;42.012;24.870;2022-07-17T06:17:06;5.78;;;2.33;;
46411;SDS011;32113;42.012;24.870;2022-07-17T06:19:32;7.35;;;2.70;;
46411;SDS011;32113;42.012;24.870;2022-07-17T06:21:57;2.97;;;2.05;;
46411;SDS011;32113;42.012;24.870;2022-07-17T06:24:22;5.10;;;2.22;;
46411;SDS011;32113;42.012;24.870;2022-07-17T06:26:48;7.65;;;2.50;;
46411;SDS011;32113;42.012;24.870;2022-07-17T06:29:14;4.45;;;2.58;;
46411;SDS011;32113;42.012;24.870;2022-07-17T06:31:39;3.30;;;2.33;;
46411;SDS011;32113;42.012;24.870;2022-07-17T06:34:06;4.82;;;2.42;;
46411;SDS011;32113;42.012;24.870;2022-07-17T06:36:31;8.10;;;2.22;;
46411;SDS011;32113;42.012;24.870;2022-07-17T06:38:56;6.85;;;2.60;;
46411;SDS011;32113;42.012;24.870;2022-07-17T06:41:22;6.00;;;2.20;;
46411;SDS011;32113;42.012;24.870;2022-07-17T06:43:47;6.07;;;2.17;;
46411;SDS011;32113;42.012;24.870;2022-07-17T06:46:13;3.47;;;2.20;;
46411;SDS011;32113;42.012;24.870;2022-07-17T06:48:38;5.05;;;1.80;;
46411;SDS011;32113;42.012;24.870;2022-07-17T06:51:04;4.15;;;2.22;;
46411;SDS011;32113;42.012;24.870;2022-07-17T06:53:29;4.20;;;2.65;;
46411;SDS011;32113;42.012;24.870;2022-07-17T06:55:55;4.63;;;2.05;;
46411;SDS011;32113;42.012;24.870;2022-07-17T06:58:20;4.30;;;2.47;;
46411;SDS011;32113;42.012;24.870;2022-07-17T07:00:45;4.07;;;2.00;;
46411;SDS011;32113;42.012;24.870;2022-07-17T07:03:11;4.55;;;2.05;;
46411;SDS011;32113;42.012;24.870;2022-07-17T07:05:36;5.13;;;2.17;;
46411;SDS011;32113;42.012;24.870;2022-07-17T07:08:02;4.80;;;2.08;;
46411;SDS011;32113;42.012;24.870;2022-07-17T07:10:27;5.47;;;2.30;;
46411;SDS011;32113;42.012;24.870;2022-07-17T07:12:53;3.85;;;2.30;;
46411;SDS011;32113;42.012;24.870;2022-07-17T07:15:18;4.75;;;2.10;;
46411;SDS011;32113;42.012;24.870;2022-07-17T07:17:44;5.35;;;2.30;;
46411;SDS011;32113;42.012;24.870;2022-07-17T07:20:10;5.10;;;1.85;;
46411;SDS011;32113;42.012;24.870;2022-07-17T07:22:36;3.88;;;2.03;;
46411;SDS011;32113;42.012;24.870;2022-07-17T07:25:02;6.20;;;2.15;;
46411;SDS011;32113;42.012;24.870;2022-07-17T07:27:28;5.22;;;2.40;;
46411;SDS011;32113;42.012;24.870;2022-07-17T07:29:53;4.63;;;2.10;;
46411;SDS011;32113;42.012;24.870;2022-07-17T07:32:18;5.40;;;2.20;;
46411;SDS011;32113;42.012;24.870;2022-07-17T07:34:44;4.20;;;2.28;;
46411;SDS011;32113;42.012;24.870;2022-07-17T07:37:09;6.25;;;2.00;;
46411;SDS011;32113;42.012;24.870;2022-07-17T07:39:34;9.38;;;2.10;;
46411;SDS011;32113;42.012;24.870;2022-07-17T07:42:00;9.05;;;2.38;;
46411;SDS011;32113;42.012;24.870;2022-07-17T07:44:25;3.40;;;2.20;;
46411;SDS011;32113;42.012;24.870;2022-07-17T07:46:51;4.28;;;2.00;;
46411;SDS011;32113;42.012;24.870;2022-07-17T07:49:16;4.82;;;2.20;;
46411;SDS011;32113;42.012;24.870;2022-07-17T07:51:42;5.22;;;1.95;;
46411;SDS011;32113;42.012;24.870;2022-07-17T07:54:07;9.10;;;2.03;;
46411;SDS011;32113;42.012;24.870;2022-07-17T07:56:33;4.93;;;1.90;;
46411;SDS011;32113;42.012;24.870;2022-07-17T07:58:58;3.15;;;1.88;;
46411;SDS011;32113;42.012;24.870;2022-07-17T08:01:24;4.90;;;1.98;;
46411;SDS011;32113;42.012;24.870;2022-07-17T08:03:50;5.80;;;2.28;;
46411;SDS011;32113;42.012;24.870;2022-07-17T08:06:15;3.20;;;1.80;;
46411;SDS011;32113;42.012;24.870;2022-07-17T08:08:41;2.85;;;1.60;;
46411;SDS011;32113;42.012;24.870;2022-07-17T08:11:06;5.40;;;2.30;;
46411;SDS011;32113;42.012;24.870;2022-07-17T08:13:32;3.88;;;1.90;;
46411;SDS011;32113;42.012;24.870;2022-07-17T08:15:57;4.85;;;1.92;;
46411;SDS011;32113;42.012;24.870;2022-07-17T08:18:24;5.40;;;3.17;;
46411;SDS011;32113;42.012;24.870;2022-07-17T08:20:51;5.10;;;2.08;;
46411;SDS011;32113;42.012;24.870;2022-07-17T08:23:17;4.18;;;2.00;;
46411;SDS011;32113;42.012;24.870;2022-07-17T08:25:42;6.45;;;2.05;;
46411;SDS011;32113;42.012;24.870;2022-07-17T08:28:09;6.25;;;2.15;;
46411;SDS011;32113;42.012;24.870;2022-07-17T08:30:35;3.58;;;1.67;;
46411;SDS011;32113;42.012;24.870;2022-07-17T08:33:05;5.18;;;1.98;;
46411;SDS011;32113;42.012;24.870;2022-07-17T08:35:32;2.88;;;1.60;;
46411;SDS011;32113;42.012;24.870;2022-07-17T08:37:58;8.07;;;2.13;;
46411;SDS011;32113;42.012;24.870;2022-07-17T08:40:27;3.50;;;2.08;;
46411;SDS011;32113;42.012;24.870;2022-07-17T08:42:59;6.53;;;2.15;;
46411;SDS011;32113;42.012;24.870;2022-07-17T08:45:26;3.53;;;1.85;;
46411;SDS011;32113;42.012;24.870;2022-07-17T08:47:52;3.13;;;1.92;;
46411;SDS011;32113;42.012;24.870;2022-07-17T08:50:21;8.30;;;2.20;;
46411;SDS011;32113;42.012;24.870;2022-07-17T08:52:52;4.32;;;1.77;;
46411;SDS011;32113;42.012;24.870;2022-07-17T08:55:17;6.85;;;2.45;;
46411;SDS011;32113;42.012;24.870;2022-07-17T08:57:43;4.90;;;2.30;;
46411;SDS011;32113;42.012;24.870;2022-07-17T09:00:11;4.90;;;2.00;;
46411;SDS011;32113;42.012;24.870;2022-07-17T09:02:38;4.03;;;1.63;;
46411;SDS011;32113;42.012;24.870;2022-07-17T09:05:05;3.50;;;1.85;;
46411;SDS011;32113;42.012;24.870;2022-07-17T09:07:32;3.88;;;2.10;;
46411;SDS011;32113;42.012;24.870;2022-07-17T09:09:57;4.00;;;1.75;;
46411;SDS011;32113;42.012;24.870;2022-07-17T09:12:26;3.60;;;1.90;;
46411;SDS011;32113;42.012;24.870;2022-07-17T09:14:54;4.35;;;1.90;;
46411;SDS011;32113;42.012;24.870;2022-07-17T09:17:21;4.75;;;2.03;;
46411;SDS011;32113;42.012;24.870;2022-07-17T09:19:47;5.05;;;2.45;;
46411;SDS011;32113;42.012;24.870;2022-07-17T09:27:05;3.42;;;2.22;;
46411;SDS011;32113;42.012;24.870;2022-07-17T09:29:31;2.90;;;2.00;;
46411;SDS011;32113;42.012;24.870;2022-07-17T09:31:57;3.80;;;2.08;;
46411;SDS011;32113;42.012;24.870;2022-07-17T09:34:22;3.40;;;1.70;;
46411;SDS011;32113;42.012;24.870;2022-07-17T09:36:57;6.53;;;1.93;;
46411;SDS011;32113;42.012;24.870;2022-07-17T09:39:36;2.60;;;2.20;;
46411;SDS011;32113;42.012;24.870;2022-07-17T09:42:03;3.17;;;2.17;;
46411;SDS011;32113;42.012;24.870;2022-07-17T09:44:28;2.60;;;1.65;;
46411;SDS011;32113;42.012;24.870;2022-07-17T09:46:53;5.07;;;2.22;;
46411;SDS011;32113;42.012;24.870;2022-07-17T09:49:20;5.30;;;2.00;;
46411;SDS011;32113;42.012;24.870;2022-07-17T09:51:50;6.45;;;2.45;;
46411;SDS011;32113;42.012;24.870;2022-07-17T09:54:16;3.15;;;2.15;;
46411;SDS011;32113;42.012;24.870;2022-07-17T09:56:46;4.25;;;2.40;;
46411;SDS011;32113;42.012;24.870;2022-07-17T09:59:15;7.90;;;2.42;;
46411;SDS011;32113;42.012;24.870;2022-07-17T10:06:35;7.20;;;3.40;;
46411;SDS011;32113;42.012;24.870;2022-07-17T10:09:01;6.25;;;3.15;;
46411;SDS011;32113;42.012;24.870;2022-07-17T10:11:30;11.02;;;5.25;;
46411;SDS011;32113;42.012;24.870;2022-07-17T10:14:03;12.80;;;7.40;;
46411;SDS011;32113;42.012;24.870;2022-07-17T10:16:31;11.95;;;5.50;;
46411;SDS011;32113;42.012;24.870;2022-07-17T10:18:58;10.75;;;6.32;;
46411;SDS011;32113;42.012;24.870;2022-07-17T10:21:27;9.38;;;3.97;;
46411;SDS011;32113;42.012;24.870;2022-07-17T10:26:32;6.17;;;2.97;;
46411;SDS011;32113;42.012;24.870;2022-07-17T10:28:58;4.10;;;1.80;;
46411;SDS011;32113;42.012;24.870;2022-07-17T10:31:28;2.63;;;1.70;;
46411;SDS011;32113;42.012;24.870;2022-07-17T10:34:00;3.33;;;1.90;;
46411;SDS011;32113;42.012;24.870;2022-07-17T10:36:37;4.72;;;2.42;;
46411;SDS011;32113;42.012;24.870;2022-07-17T10:39:16;7.90;;;2.22;;
46411;SDS011;32113;42.012;24.870;2022-07-17T10:41:55;5.63;;;2.00;;
46411;SDS011;32113;42.012;24.870;2022-07-17T10:44:26;4.95;;;2.03;;
46411;SDS011;32113;42.012;24.870;2022-07-17T10:46:53;3.15;;;1.77;;
46411;SDS011;32113;42.012;24.870;2022-07-17T10:49:19;3.83;;;2.05;;
46411;SDS011;32113;42.012;24.870;2022-07-17T10:51:48;7.32;;;1.98;;
46411;SDS011;32113;42.012;24.870;2022-07-17T10:54:15;3.80;;;2.08;;
46411;SDS011;32113;42.012;24.870;2022-07-17T10:56:41;5.90;;;2.07;;
46411;SDS011;32113;42.012;24.870;2022-07-17T10:59:06;3.00;;;1.67;;
46411;SDS011;32113;42.012;24.870;2022-07-17T11:01:32;9.27;;;2.13;;
46411;SDS011;32113;42.012;24.870;2022-07-17T11:03:59;6.07;;;1.87;;
46411;SDS011;32113;42.012;24.870;2022-07-17T11:06:30;9.15;;;1.75;;
46411;SDS011;32113;42.012;24.870;2022-07-17T11:16:36;3.47;;;1.90;;
46411;SDS011;32113;42.012;24.870;2022-07-17T11:19:03;2.30;;;1.67;;
46411;SDS011;32113;42.012;24.870;2022-07-17T11:21:29;4.87;;;1.90;;
46411;SDS011;32113;42.012;24.870;2022-07-17T11:23:55;3.03;;;1.98;;
46411;SDS011;32113;42.012;24.870;2022-07-17T11:26:22;7.38;;;1.90;;
46411;SDS011;32113;42.012;24.870;2022-07-17T11:28:48;3.17;;;1.90;;
46411;SDS011;32113;42.012;24.870;2022-07-17T11:36:21;4.40;;;2.03;;
46411;SDS011;32113;42.012;24.870;2022-07-17T11:38:48;2.50;;;1.60;;
46411;SDS011;32113;42.012;24.870;2022-07-17T11:41:15;4.77;;;1.70;;
46411;SDS011;32113;42.012;24.870;2022-07-17T11:43:42;2.78;;;1.65;;
46411;SDS011;32113;42.012;24.870;2022-07-17T11:46:08;2.90;;;2.03;;
46411;SDS011;32113;42.012;24.870;2022-07-17T11:48:34;3.05;;;1.98;;
46411;SDS011;32113;42.012;24.870;2022-07-17T11:50:59;3.20;;;1.60;;
46411;SDS011;32113;42.012;24.870;2022-07-17T11:53:31;4.77;;;2.27;;
46411;SDS011;32113;42.012;24.870;2022-07-17T11:55:59;3.45;;;2.03;;
46411;SDS011;32113;42.012;24.870;2022-07-17T11:58:25;3.80;;;2.07;;
46411;SDS011;32113;42.012;24.870;2022-07-17T12:01:02;4.97;;;1.90;;
46411;SDS011;32113;42.012;24.870;2022-07-17T12:03:29;2.38;;;1.63;;
46411;SDS011;32113;42.012;24.870;2022-07-17T12:05:54;5.20;;;2.17;;
46411;SDS011;32113;42.012;24.870;2022-07-17T12:08:20;3.63;;;2.00;;
46411;SDS011;32113;42.012;24.870;2022-07-17T12:10:46;4.13;;;2.20;;
46411;SDS011;32113;42.012;24.870;2022-07-17T12:13:12;3.72;;;1.92;;
46411;SDS011;32113;42.012;24.870;2022-07-17T12:18:05;6.17;;;2.17;;
46411;SDS011;32113;42.012;24.870;2022-07-17T12:20:42;2.40;;;1.70;;
46411;SDS011;32113;42.012;24.870;2022-07-17T12:23:09;2.78;;;2.00;;
46411;SDS011;32113;42.012;24.870;2022-07-17T12:25:50;2.95;;;1.48;;
46411;SDS011;32113;42.012;24.870;2022-07-17T12:28:15;4.93;;;2.03;;
46411;SDS011;32113;42.012;24.870;2022-07-17T12:30:41;2.63;;;1.70;;
46411;SDS011;32113;42.012;24.870;2022-07-17T12:33:06;2.53;;;1.53;;
46411;SDS011;32113;42.012;24.870;2022-07-17T12:35:31;2.77;;;1.60;;
46411;SDS011;32113;42.012;24.870;2022-07-17T12:37:57;4.93;;;3.83;;
46411;SDS011;32113;42.012;24.870;2022-07-17T12:40:22;3.63;;;2.33;;
46411;SDS011;32113;42.012;24.870;2022-07-17T12:42:48;5.13;;;1.80;;
46411;SDS011;32113;42.012;24.870;2022-07-17T12:45:13;3.20;;;1.80;;
46411;SDS011;32113;42.012;24.870;2022-07-17T12:47:38;3.63;;;1.83;;
46411;SDS011;32113;42.012;24.870;2022-07-17T12:50:04;6.20;;;2.03;;
46411;SDS011;32113;42.012;24.870;2022-07-17T12:52:30;4.80;;;1.43;;
46411;SDS011;32113;42.012;24.870;2022-07-17T12:54:55;4.00;;;1.50;;
46411;SDS011;32113;42.012;24.870;2022-07-17T12:57:21;4.80;;;1.50;;
46411;SDS011;32113;42.012;24.870;2022-07-17T12:59:46;3.13;;;1.93;;
46411;SDS011;32113;42.012;24.870;2022-07-17T13:02:12;3.43;;;2.00;;
46411;SDS011;32113;42.012;24.870;2022-07-17T13:04:37;4.63;;;1.80;;
46411;SDS011;32113;42.012;24.870;2022-07-17T13:07:03;2.87;;;1.53;;
46411;SDS011;32113;42.012;24.870;2022-07-17T13:09:28;2.70;;;1.60;;
46411;SDS011;32113;42.012;24.870;2022-07-17T13:11:53;4.23;;;1.90;;
46411;SDS011;32113;42.012;24.870;2022-07-17T13:14:20;4.38;;;1.90;;
46411;SDS011;32113;42.012;24.870;2022-07-17T13:16:46;3.93;;;1.73;;
46411;SDS011;32113;42.012;24.870;2022-07-17T13:19:11;4.23;;;1.87;;
46411;SDS011;32113;42.012;24.870;2022-07-17T13:21:37;2.90;;;1.80;;
46411;SDS011;32113;42.012;24.870;2022-07-17T13:24:02;2.83;;;1.70;;
46411;SDS011;32113;42.012;24.870;2022-07-17T13:26:28;5.35;;;2.10;;
46411;SDS011;32113;42.012;24.870;2022-07-17T13:28:54;3.13;;;1.70;;
46411;SDS011;32113;42.012;24.870;2022-07-17T13:31:19;3.17;;;1.60;;
46411;SDS011;32113;42.012;24.870;2022-07-17T13:33:45;5.83;;;2.20;;
46411;SDS011;32113;42.012;24.870;2022-07-17T13:36:10;3.33;;;1.80;;
46411;SDS011;32113;42.012;24.870;2022-07-17T13:38:40;5.30;;;2.20;;
46411;SDS011;32113;42.012;24.870;2022-07-17T13:41:09;4.20;;;3.08;;
46411;SDS011;32113;42.012;24.870;2022-07-17T13:43:35;2.30;;;1.57;;
46411;SDS011;32113;42.012;24.870;2022-07-17T13:46:00;2.87;;;1.80;;
46411;SDS011;32113;42.012;24.870;2022-07-17T13:48:26;4.88;;;2.17;;
46411;SDS011;32113;42.012;24.870;2022-07-17T13:50:51;2.53;;;1.70;;
46411;SDS011;32113;42.012;24.870;2022-07-17T13:53:16;2.45;;;1.60;;
46411;SDS011;32113;42.012;24.870;2022-07-17T13:55:42;3.07;;;1.70;;
46411;SDS011;32113;42.012;24.870;2022-07-17T13:58:07;2.93;;;1.73;;
46411;SDS011;32113;42.012;24.870;2022-07-17T14:00:33;3.13;;;1.67;;
46411;SDS011;32113;42.012;24.870;2022-07-17T14:02:59;5.07;;;2.40;;
46411;SDS011;32113;42.012;24.870;2022-07-17T14:05:24;4.55;;;2.28;;
46411;SDS011;32113;42.012;24.870;2022-07-17T14:07:50;3.65;;;2.35;;
46411;SDS011;32113;42.012;24.870;2022-07-17T14:10:15;2.92;;;1.70;;
46411;SDS011;32113;42.012;24.870;2022-07-17T14:12:40;3.77;;;2.03;;
46411;SDS011;32113;42.012;24.870;2022-07-17T14:15:06;3.72;;;2.05;;
46411;SDS011;32113;42.012;24.870;2022-07-17T14:17:35;4.03;;;2.13;;
46411;SDS011;32113;42.012;24.870;2022-07-17T14:20:01;4.70;;;1.90;;
46411;SDS011;32113;42.012;24.870;2022-07-17T14:22:28;5.60;;;1.77;;
46411;SDS011;32113;42.012;24.870;2022-07-17T14:24:53;4.40;;;2.42;;
46411;SDS011;32113;42.012;24.870;2022-07-17T14:27:19;5.50;;;2.33;;
46411;SDS011;32113;42.012;24.870;2022-07-17T14:29:44;4.57;;;2.10;;
46411;SDS011;32113;42.012;24.870;2022-07-17T14:32:10;4.75;;;2.20;;
46411;SDS011;32113;42.012;24.870;2022-07-17T14:34:35;3.45;;;2.30;;
46411;SDS011;32113;42.012;24.870;2022-07-17T14:37:01;4.22;;;2.85;;
46411;SDS011;32113;42.012;24.870;2022-07-17T14:41:53;5.20;;;2.67;;
46411;SDS011;32113;42.012;24.870;2022-07-17T14:44:19;4.47;;;2.40;;
46411;SDS011;32113;42.012;24.870;2022-07-17T14:46:45;6.10;;;3.13;;
46411;SDS011;32113;42.012;24.870;2022-07-17T14:49:10;8.15;;;3.63;;
46411;SDS011;32113;42.012;24.870;2022-07-17T14:51:35;4.78;;;3.15;;
46411;SDS011;32113;42.012;24.870;2022-07-17T14:54:01;4.53;;;2.72;;
46411;SDS011;32113;42.012;24.870;2022-07-17T14:56:26;4.30;;;2.90;;
46411;SDS011;32113;42.012;24.870;2022-07-17T14:58:52;22.13;;;5.10;;